createdAt,value
2018-11-29T00:00:08.741Z,0.00
2018-11-29T00:01:09.032Z,0.00
2018-11-29T00:02:08.731Z,0.00
2018-11-29T00:03:08.710Z,0.00
2018-11-29T00:04:08.699Z,0.00
2018-11-29T00:05:08.688Z,0.00
2018-11-29T00:06:08.675Z,0.00
2018-11-29T00:07:08.709Z,0.00
2018-11-29T00:08:08.660Z,0.00
2018-11-29T00:09:08.644Z,0.00
2018-11-29T00:10:08.631Z,0.00
2018-11-29T00:11:08.669Z,0.00
2018-11-29T00:12:08.610Z,0.00
2018-11-29T00:13:08.606Z,0.00
2018-11-29T00:14:08.589Z,0.00
2018-11-29T00:15:08.579Z,0.00
2018-11-29T00:16:08.569Z,0.00
2018-11-29T00:17:08.846Z,0.00
2018-11-29T00:18:08.547Z,0.00
2018-11-29T00:19:08.538Z,0.00
2018-11-29T00:20:08.540Z,0.00
2018-11-29T00:21:08.512Z,0.00
2018-11-29T00:22:08.502Z,0.00
2018-11-29T00:23:08.536Z,0.00
2018-11-29T00:24:08.486Z,0.00
2018-11-29T00:25:08.517Z,0.00
2018-11-29T00:26:08.457Z,0.00
2018-11-29T00:27:08.447Z,0.00
2018-11-29T00:28:08.489Z,0.00
2018-11-29T00:29:08.424Z,0.00
2018-11-29T00:30:08.439Z,0.00
2018-11-29T00:31:08.403Z,0.00
2018-11-29T00:32:08.390Z,0.00
2018-11-29T00:33:08.381Z,0.00
2018-11-29T00:34:08.418Z,0.00
2018-11-29T00:35:08.367Z,0.00
2018-11-29T00:36:08.391Z,0.00
2018-11-29T00:37:08.339Z,0.00
2018-11-29T00:38:08.336Z,0.00
2018-11-29T00:39:08.364Z,0.00
2018-11-29T00:40:08.310Z,0.00
2018-11-29T00:41:08.295Z,0.00
2018-11-29T00:42:08.284Z,0.00
2018-11-29T00:43:08.271Z,0.00
2018-11-29T00:44:08.271Z,0.00
2018-11-29T00:45:08.298Z,0.00
2018-11-29T00:46:08.284Z,0.00
2018-11-29T00:47:08.247Z,0.00
2018-11-29T00:48:08.217Z,0.00
2018-11-29T00:49:08.254Z,0.00
2018-11-29T00:50:08.194Z,0.00
2018-11-29T00:51:08.236Z,0.00
2018-11-29T00:52:08.175Z,0.00
2018-11-29T00:53:08.163Z,0.00
2018-11-29T00:54:08.155Z,0.00
2018-11-29T00:55:08.147Z,0.00
2018-11-29T00:56:08.167Z,0.00
2018-11-29T00:57:08.168Z,0.00
2018-11-29T00:58:08.109Z,0.00
2018-11-29T00:59:08.098Z,0.00
2018-11-29T01:00:08.090Z,0.00
2018-11-29T01:01:08.078Z,0.00
2018-11-29T01:02:08.064Z,0.00
2018-11-29T01:03:08.100Z,0.00
2018-11-29T01:04:08.043Z,0.00
2018-11-29T01:05:08.095Z,0.00
2018-11-29T01:06:08.021Z,0.00
2018-11-29T01:07:08.010Z,0.00
2018-11-29T01:08:08.003Z,0.00
2018-11-29T01:09:07.991Z,0.00
2018-11-29T01:10:07.978Z,0.00
2018-11-29T01:11:08.084Z,0.00
2018-11-29T01:12:07.956Z,0.00
2018-11-29T01:13:07.945Z,0.00
2018-11-29T01:14:07.933Z,0.00
2018-11-29T01:15:07.923Z,0.00
2018-11-29T01:16:08.203Z,0.00
2018-11-29T01:17:07.902Z,0.00
2018-11-29T01:18:07.890Z,0.00
2018-11-29T01:19:07.880Z,0.00
2018-11-29T01:20:07.869Z,0.00
2018-11-29T01:21:07.858Z,0.00
2018-11-29T01:22:07.891Z,0.00
2018-11-29T01:23:07.837Z,0.00
2018-11-29T01:24:07.824Z,0.00
2018-11-29T01:25:07.813Z,0.00
2018-11-29T01:26:07.850Z,0.00
2018-11-29T01:27:07.793Z,0.00
2018-11-29T01:28:07.784Z,0.00
2018-11-29T01:29:07.772Z,0.00
2018-11-29T01:30:07.786Z,0.00
2018-11-29T01:31:07.749Z,0.00
2018-11-29T01:32:07.782Z,0.00
2018-11-29T01:33:07.728Z,0.00
2018-11-29T01:34:07.716Z,0.00
2018-11-29T01:35:07.706Z,0.00
2018-11-29T01:36:07.693Z,0.00
2018-11-29T01:37:07.684Z,0.00
2018-11-29T01:38:07.718Z,0.00
2018-11-29T01:39:07.732Z,0.00
2018-11-29T01:40:07.654Z,0.00
2018-11-29T01:41:07.640Z,0.00
2018-11-29T01:42:07.629Z,0.00
2018-11-29T01:43:07.618Z,0.00
2018-11-29T01:44:07.624Z,0.00
2018-11-29T01:45:07.652Z,0.00
2018-11-29T01:46:07.587Z,0.00
2018-11-29T01:47:07.576Z,0.00
2018-11-29T01:48:07.564Z,0.00
2018-11-29T01:49:07.574Z,0.00
2018-11-29T01:50:07.542Z,0.00
2018-11-29T01:51:07.581Z,0.00
2018-11-29T01:52:07.520Z,0.00
2018-11-29T01:53:07.512Z,0.00
2018-11-29T01:54:07.498Z,0.00
2018-11-29T01:55:07.488Z,0.00
2018-11-29T01:56:07.521Z,0.00
2018-11-29T01:57:07.466Z,0.00
2018-11-29T01:58:07.457Z,0.00
2018-11-29T01:59:07.445Z,0.00
2018-11-29T02:00:07.432Z,0.00
2018-11-29T02:01:07.470Z,0.00
2018-11-29T02:02:07.411Z,0.00
2018-11-29T02:03:07.448Z,0.00
2018-11-29T02:04:07.388Z,0.00
2018-11-29T02:05:07.388Z,0.00
2018-11-29T02:06:07.372Z,0.00
2018-11-29T02:07:07.355Z,0.00
2018-11-29T02:08:07.345Z,0.00
2018-11-29T02:09:07.380Z,0.00
2018-11-29T02:10:07.323Z,0.00
2018-11-29T02:11:07.317Z,0.00
2018-11-29T02:12:07.301Z,0.00
2018-11-29T02:13:07.290Z,0.00
2018-11-29T02:14:07.283Z,0.00
2018-11-29T02:15:07.315Z,0.00
2018-11-29T02:16:07.257Z,0.00
2018-11-29T02:17:07.247Z,0.00
2018-11-29T02:18:07.244Z,0.00
2018-11-29T02:19:07.270Z,0.00
2018-11-29T02:20:07.215Z,0.00
2018-11-29T02:21:07.255Z,0.00
2018-11-29T02:22:07.191Z,0.00
2018-11-29T02:23:07.182Z,0.00
2018-11-29T02:24:07.176Z,0.00
2018-11-29T02:25:07.158Z,0.00
2018-11-29T02:26:07.148Z,0.00
2018-11-29T02:27:07.183Z,0.00
2018-11-29T02:28:07.127Z,0.00
2018-11-29T02:29:07.119Z,0.00
2018-11-29T02:30:07.151Z,0.00
2018-11-29T02:31:07.126Z,0.00
2018-11-29T02:32:07.086Z,0.00
2018-11-29T02:33:07.072Z,0.00
2018-11-29T02:34:07.062Z,0.00
2018-11-29T02:35:07.115Z,0.00
2018-11-29T02:36:07.041Z,0.00
2018-11-29T02:37:07.028Z,0.00
2018-11-29T02:38:07.022Z,0.00
2018-11-29T02:39:07.006Z,0.00
2018-11-29T02:40:06.996Z,0.00
2018-11-29T02:41:07.048Z,0.00
2018-11-29T02:42:06.974Z,0.00
2018-11-29T02:43:06.964Z,0.00
2018-11-29T02:44:06.955Z,0.00
2018-11-29T02:45:06.942Z,0.00
2018-11-29T02:46:06.931Z,0.00
2018-11-29T02:47:06.975Z,0.00
2018-11-29T02:48:06.909Z,0.00
2018-11-29T02:49:06.898Z,0.00
2018-11-29T02:50:06.886Z,0.00
2018-11-29T02:51:06.879Z,0.00
2018-11-29T02:52:06.866Z,0.00
2018-11-29T02:53:06.901Z,0.00
2018-11-29T02:54:06.841Z,0.00
2018-11-29T02:55:06.833Z,0.00
2018-11-29T02:56:06.823Z,0.00
2018-11-29T02:57:06.810Z,0.00
2018-11-29T02:58:06.800Z,0.00
2018-11-29T02:59:06.837Z,0.00
2018-11-29T03:00:06.776Z,0.00
2018-11-29T03:01:06.768Z,0.00
2018-11-29T03:02:06.760Z,0.00
2018-11-29T03:03:06.743Z,0.00
2018-11-29T03:04:06.741Z,0.00
2018-11-29T03:05:06.774Z,0.00
2018-11-29T03:06:06.712Z,0.00
2018-11-29T03:07:06.705Z,0.00
2018-11-29T03:08:06.690Z,0.00
2018-11-29T03:09:06.678Z,0.00
2018-11-29T03:10:06.673Z,0.00
2018-11-29T03:11:06.704Z,0.00
2018-11-29T03:12:06.645Z,0.00
2018-11-29T03:13:06.635Z,0.00
2018-11-29T03:14:06.624Z,0.00
2018-11-29T03:15:06.612Z,0.00
2018-11-29T03:16:06.648Z,0.00
2018-11-29T03:17:06.590Z,0.00
2018-11-29T03:18:06.584Z,0.00
2018-11-29T03:19:06.583Z,0.00
2018-11-29T03:20:06.595Z,0.00
2018-11-29T03:21:06.546Z,0.00
2018-11-29T03:22:06.832Z,0.00
2018-11-29T03:23:06.523Z,0.00
2018-11-29T03:24:06.515Z,0.00
2018-11-29T03:25:06.503Z,0.00
2018-11-29T03:26:06.490Z,0.00
2018-11-29T03:27:06.483Z,0.00
2018-11-29T03:28:06.539Z,0.00
2018-11-29T03:29:06.494Z,0.00
2018-11-29T03:30:06.449Z,0.00
2018-11-29T03:31:06.438Z,0.00
2018-11-29T03:32:06.427Z,0.00
2018-11-29T03:33:06.418Z,0.00
2018-11-29T03:34:06.450Z,0.00
2018-11-29T03:35:06.393Z,0.00
2018-11-29T03:36:06.387Z,0.00
2018-11-29T03:37:06.376Z,0.00
2018-11-29T03:38:06.361Z,0.00
2018-11-29T03:39:06.360Z,0.00
2018-11-29T03:40:06.385Z,0.00
2018-11-29T03:41:06.331Z,0.00
2018-11-29T03:42:06.317Z,0.00
2018-11-29T03:43:06.309Z,0.00
2018-11-29T03:44:06.318Z,0.00
2018-11-29T03:45:06.292Z,0.00
2018-11-29T03:46:06.567Z,0.00
2018-11-29T03:47:06.263Z,0.00
2018-11-29T03:48:06.252Z,0.00
2018-11-29T03:49:06.242Z,0.00
2018-11-29T03:50:06.254Z,0.00
2018-11-29T03:51:06.221Z,0.00
2018-11-29T03:52:06.257Z,0.00
2018-11-29T03:53:06.198Z,0.00
2018-11-29T03:54:06.190Z,0.00
2018-11-29T03:55:06.176Z,0.00
2018-11-29T03:56:06.175Z,0.00
2018-11-29T03:57:06.154Z,0.00
2018-11-29T03:58:06.442Z,0.00
2018-11-29T03:59:06.132Z,0.00
2018-11-29T04:00:06.122Z,0.00
2018-11-29T04:01:06.146Z,0.00
2018-11-29T04:02:06.113Z,0.00
2018-11-29T04:03:06.091Z,0.00
2018-11-29T04:04:06.376Z,0.00
2018-11-29T04:05:06.093Z,0.00
2018-11-29T04:06:06.056Z,0.00
2018-11-29T04:07:06.047Z,0.00
2018-11-29T04:08:06.035Z,0.00
2018-11-29T04:09:06.024Z,0.00
2018-11-29T04:10:06.061Z,0.00
2018-11-29T04:11:05.999Z,0.00
2018-11-29T04:12:05.998Z,0.00
2018-11-29T04:13:05.980Z,0.00
2018-11-29T04:14:06.021Z,0.00
2018-11-29T04:15:05.957Z,0.00
2018-11-29T04:16:05.946Z,0.00
2018-11-29T04:17:05.935Z,0.00
2018-11-29T04:18:05.924Z,0.00
2018-11-29T04:19:05.913Z,0.00
2018-11-29T04:20:05.947Z,0.00
2018-11-29T04:21:05.937Z,0.00
2018-11-29T04:22:05.880Z,0.00
2018-11-29T04:23:05.869Z,0.00
2018-11-29T04:24:05.865Z,0.00
2018-11-29T04:25:06.064Z,0.00
2018-11-29T04:26:05.892Z,0.00
2018-11-29T04:27:05.826Z,0.00
2018-11-29T04:28:05.814Z,0.00
2018-11-29T04:29:05.803Z,0.00
2018-11-29T04:30:05.794Z,0.00
2018-11-29T04:31:05.783Z,0.00
2018-11-29T04:32:05.816Z,0.00
2018-11-29T04:33:05.761Z,0.00
2018-11-29T04:34:05.756Z,0.00
2018-11-29T04:35:05.740Z,0.00
2018-11-29T04:36:05.727Z,0.00
2018-11-29T04:37:05.716Z,0.00
2018-11-29T04:38:05.753Z,0.00
2018-11-29T04:39:05.741Z,0.00
2018-11-29T04:40:05.684Z,0.00
2018-11-29T04:41:05.672Z,0.00
2018-11-29T04:42:05.661Z,0.00
2018-11-29T04:43:05.672Z,0.00
2018-11-29T04:44:05.641Z,0.00
2018-11-29T04:45:05.678Z,0.00
2018-11-29T04:46:05.620Z,0.00
2018-11-29T04:47:05.653Z,0.00
2018-11-29T04:48:09.947Z,0.00
2018-11-29T04:49:05.588Z,0.00
2018-11-29T04:50:05.576Z,0.00
2018-11-29T04:51:05.564Z,0.00
2018-11-29T04:52:05.599Z,0.00
2018-11-29T04:53:05.550Z,0.00
2018-11-29T04:54:05.533Z,0.00
2018-11-29T04:55:05.520Z,0.00
2018-11-29T04:56:05.513Z,0.00
2018-11-29T04:57:05.501Z,0.00
2018-11-29T04:58:05.540Z,0.00
2018-11-29T04:59:05.476Z,0.00
2018-11-29T05:00:05.467Z,0.00
2018-11-29T05:01:05.455Z,0.00
2018-11-29T05:02:05.459Z,0.00
2018-11-29T05:03:05.439Z,0.00
2018-11-29T05:04:05.474Z,0.00
2018-11-29T05:05:05.422Z,0.00
2018-11-29T05:06:05.403Z,0.00
2018-11-29T05:07:05.407Z,0.00
2018-11-29T05:08:05.379Z,0.00
2018-11-29T05:09:05.370Z,0.00
2018-11-29T05:10:05.402Z,0.00
2018-11-29T05:11:05.345Z,0.00
2018-11-29T05:12:05.352Z,0.00
2018-11-29T05:13:05.324Z,0.00
2018-11-29T05:14:05.315Z,0.00
2018-11-29T05:15:05.304Z,0.00
2018-11-29T05:16:05.341Z,0.00
2018-11-29T05:17:05.296Z,0.00
2018-11-29T05:18:05.272Z,0.00
2018-11-29T05:19:05.261Z,0.00
2018-11-29T05:20:05.252Z,0.00
2018-11-29T05:21:05.236Z,0.00
2018-11-29T05:22:05.269Z,0.00
2018-11-29T05:23:05.213Z,0.00
2018-11-29T05:24:05.202Z,0.00
2018-11-29T05:25:05.191Z,0.00
2018-11-29T05:26:05.203Z,0.00
2018-11-29T05:27:05.177Z,0.00
2018-11-29T05:28:05.452Z,0.00
2018-11-29T05:29:05.147Z,0.00
2018-11-29T05:30:05.136Z,0.00
2018-11-29T05:31:05.130Z,0.00
2018-11-29T05:32:05.116Z,0.00
2018-11-29T05:33:05.109Z,0.00
2018-11-29T05:34:05.140Z,0.00
2018-11-29T05:35:05.128Z,0.00
2018-11-29T05:36:05.118Z,0.00
2018-11-29T05:37:05.060Z,0.00
2018-11-29T05:38:05.050Z,0.00
2018-11-29T05:39:05.038Z,0.00
2018-11-29T05:40:05.029Z,0.00
2018-11-29T05:41:05.063Z,0.00
2018-11-29T05:42:05.054Z,0.00
2018-11-29T05:43:04.995Z,0.00
2018-11-29T05:44:04.985Z,0.00
2018-11-29T05:45:04.981Z,0.00
2018-11-29T05:46:04.962Z,0.00
2018-11-29T05:47:04.954Z,0.00
2018-11-29T05:48:04.991Z,0.00
2018-11-29T05:49:04.976Z,0.00
2018-11-29T05:50:04.924Z,0.00
2018-11-29T05:51:04.915Z,0.00
2018-11-29T05:52:04.897Z,0.00
2018-11-29T05:53:04.888Z,0.00
2018-11-29T05:54:04.883Z,0.00
2018-11-29T05:55:04.917Z,0.00
2018-11-29T05:56:04.855Z,0.00
2018-11-29T05:57:04.843Z,0.00
2018-11-29T05:58:04.832Z,0.00
2018-11-29T05:59:04.842Z,0.00
2018-11-29T06:00:04.810Z,0.00
2018-11-29T06:01:04.852Z,0.00
2018-11-29T06:02:04.789Z,0.00
2018-11-29T06:03:04.779Z,0.00
2018-11-29T06:04:04.814Z,0.00
2018-11-29T06:05:04.758Z,0.00
2018-11-29T06:06:04.746Z,0.00
2018-11-29T06:07:05.030Z,0.00
2018-11-29T06:08:04.725Z,0.00
2018-11-29T06:09:04.713Z,0.00
2018-11-29T06:10:04.702Z,0.00
2018-11-29T06:11:04.691Z,0.00
2018-11-29T06:12:04.684Z,0.00
2018-11-29T06:13:04.972Z,0.00
2018-11-29T06:14:04.659Z,0.00
2018-11-29T06:15:04.650Z,0.00
2018-11-29T06:16:04.638Z,0.00
2018-11-29T06:17:04.626Z,0.00
2018-11-29T06:18:04.619Z,0.00
2018-11-29T06:19:04.655Z,0.00
2018-11-29T06:20:04.614Z,0.00
2018-11-29T06:21:04.696Z,0.00
2018-11-29T06:22:04.665Z,0.00
2018-11-29T06:23:05.245Z,0.00
2018-11-29T06:24:04.610Z,0.00
2018-11-29T06:25:04.545Z,0.00
2018-11-29T06:26:04.529Z,0.00
2018-11-29T06:27:04.522Z,0.00
2018-11-29T06:28:04.508Z,0.00
2018-11-29T06:29:04.496Z,0.00
2018-11-29T06:30:04.545Z,0.00
2018-11-29T06:31:04.475Z,0.00
2018-11-29T06:32:04.466Z,0.00
2018-11-29T06:33:04.452Z,0.00
2018-11-29T06:34:04.445Z,0.00
2018-11-29T06:35:04.483Z,0.00
2018-11-29T06:36:04.471Z,0.00
2018-11-29T06:37:04.419Z,0.00
2018-11-29T06:38:04.440Z,0.00
2018-11-29T06:39:04.388Z,0.00
2018-11-29T06:40:04.406Z,4.00
2018-11-29T06:41:04.562Z,4.00
2018-11-29T06:42:04.355Z,0.00
2018-11-29T06:43:04.344Z,4.00
2018-11-29T06:44:04.353Z,4.00
2018-11-29T06:45:04.324Z,4.00
2018-11-29T06:46:04.311Z,8.00
2018-11-29T06:47:04.386Z,8.00
2018-11-29T06:48:04.290Z,8.00
2018-11-29T06:49:04.279Z,12.00
2018-11-29T06:50:04.270Z,12.00
2018-11-29T06:51:04.258Z,16.00
2018-11-29T06:52:04.245Z,20.00
2018-11-29T06:53:04.280Z,24.00
2018-11-29T06:54:04.230Z,24.00
2018-11-29T06:55:04.214Z,28.00
2018-11-29T06:56:04.202Z,32.00
2018-11-29T06:57:04.194Z,36.00
2018-11-29T06:58:04.473Z,44.00
2018-11-29T06:59:04.169Z,48.00
2018-11-29T07:00:04.171Z,56.00
2018-11-29T07:01:04.151Z,60.00
2018-11-29T07:02:04.140Z,64.00
2018-11-29T07:03:04.126Z,68.00
2018-11-29T07:04:04.435Z,76.00
2018-11-29T07:05:04.105Z,88.00
2018-11-29T07:06:04.090Z,96.00
2018-11-29T07:07:04.123Z,104.00
2018-11-29T07:08:04.084Z,108.00
2018-11-29T07:09:04.085Z,116.00
2018-11-29T07:10:04.120Z,116.00
2018-11-29T07:11:04.055Z,124.00
2018-11-29T07:12:04.030Z,132.00
2018-11-29T07:13:04.094Z,140.00
2018-11-29T07:14:04.015Z,148.00
2018-11-29T07:15:04.097Z,152.00
2018-11-29T07:16:04.038Z,164.00
2018-11-29T07:17:03.976Z,172.00
2018-11-29T07:18:03.961Z,184.00
2018-11-29T07:19:03.978Z,188.00
2018-11-29T07:20:03.967Z,200.00
2018-11-29T07:21:03.931Z,208.00
2018-11-29T07:22:03.981Z,216.00
2018-11-29T07:23:03.908Z,228.00
2018-11-29T07:24:03.900Z,236.00
2018-11-29T07:25:03.884Z,252.00
2018-11-29T07:26:03.874Z,256.00
2018-11-29T07:27:03.865Z,264.00
2018-11-29T07:28:04.312Z,280.00
2018-11-29T07:29:03.846Z,296.00
2018-11-29T07:30:03.895Z,320.00
2018-11-29T07:31:03.860Z,348.00
2018-11-29T07:32:03.863Z,372.00
2018-11-29T07:33:03.802Z,404.00
2018-11-29T07:34:03.788Z,432.00
2018-11-29T07:35:03.773Z,456.00
2018-11-29T07:36:03.848Z,472.00
2018-11-29T07:37:03.999Z,476.00
2018-11-29T07:38:03.785Z,480.00
2018-11-29T07:39:03.833Z,472.00
2018-11-29T07:40:03.759Z,468.00
2018-11-29T07:41:03.786Z,460.00
2018-11-29T07:42:04.396Z,456.00
2018-11-29T07:43:04.259Z,460.00
2018-11-29T07:44:03.681Z,472.00
2018-11-29T07:45:03.759Z,492.00
2018-11-29T07:46:03.689Z,516.00
2018-11-29T07:47:03.695Z,544.00
2018-11-29T07:48:03.649Z,572.00
2018-11-29T07:49:03.810Z,604.00
2018-11-29T07:50:03.610Z,632.00
2018-11-29T07:51:03.644Z,660.00
2018-11-29T07:52:03.597Z,676.00
2018-11-29T07:53:03.633Z,684.00
2018-11-29T07:54:03.564Z,688.00
2018-11-29T07:55:03.566Z,688.00
2018-11-29T07:56:03.554Z,688.00
2018-11-29T07:57:04.541Z,684.00
2018-11-29T07:58:05.857Z,676.00
2018-11-29T07:59:04.644Z,664.00
2018-11-29T08:00:03.585Z,652.00
2018-11-29T08:01:04.410Z,640.00
2018-11-29T08:02:03.609Z,632.00
2018-11-29T08:03:03.797Z,624.00
2018-11-29T08:04:04.274Z,624.00
2018-11-29T08:05:03.524Z,620.00
2018-11-29T08:06:04.489Z,620.00
2018-11-29T08:07:06.780Z,620.00
2018-11-29T08:08:05.398Z,620.00
2018-11-29T08:09:07.270Z,632.00
2018-11-29T08:10:06.410Z,644.00
2018-11-29T08:11:04.358Z,652.00
2018-11-29T08:12:04.741Z,664.00
2018-11-29T08:13:04.604Z,668.00
2018-11-29T08:14:03.690Z,676.00
2018-11-29T08:15:04.044Z,692.00
2018-11-29T08:16:03.503Z,712.00
2018-11-29T08:17:03.382Z,740.00
2018-11-29T08:18:03.341Z,768.00
2018-11-29T08:19:03.617Z,800.00
2018-11-29T08:20:03.328Z,840.00
2018-11-29T08:21:03.272Z,884.00
2018-11-29T08:22:03.398Z,936.00
2018-11-29T08:23:03.256Z,984.00
2018-11-29T08:24:03.515Z,1020.00
2018-11-29T08:25:03.223Z,1052.00
2018-11-29T08:26:03.229Z,1080.00
2018-11-29T08:27:03.201Z,1108.00
2018-11-29T08:28:03.329Z,1132.00
2018-11-29T08:29:03.193Z,1176.00
2018-11-29T08:30:03.163Z,1220.00
2018-11-29T08:31:03.198Z,1268.00
2018-11-29T08:32:03.147Z,1316.00
2018-11-29T08:33:03.201Z,1356.00
2018-11-29T08:34:03.147Z,1412.00
2018-11-29T08:35:03.116Z,1472.00
2018-11-29T08:36:03.145Z,1548.00
2018-11-29T08:37:03.198Z,1616.00
2018-11-29T08:38:03.651Z,1656.00
2018-11-29T08:39:03.070Z,1664.00
2018-11-29T08:40:03.053Z,1660.00
2018-11-29T08:41:03.100Z,1644.00
2018-11-29T08:42:03.040Z,1616.00
2018-11-29T08:43:03.045Z,1584.00
2018-11-29T08:44:03.019Z,1540.00
2018-11-29T08:45:03.085Z,1492.00
2018-11-29T08:46:03.049Z,1456.00
2018-11-29T08:47:03.106Z,1432.00
2018-11-29T08:48:02.977Z,1440.00
2018-11-29T08:49:02.955Z,1468.00
2018-11-29T08:50:02.942Z,1512.00
2018-11-29T08:51:02.959Z,1568.00
2018-11-29T08:52:02.963Z,1616.00
2018-11-29T08:53:02.946Z,1640.00
2018-11-29T08:54:02.904Z,1652.00
2018-11-29T08:55:02.894Z,1648.00
2018-11-29T08:56:02.955Z,1640.00
2018-11-29T08:57:02.999Z,1648.00
2018-11-29T08:58:02.908Z,1656.00
2018-11-29T08:59:02.859Z,1672.00
2018-11-29T09:00:02.831Z,1692.00
2018-11-29T09:01:02.825Z,1708.00
2018-11-29T09:02:02.848Z,1716.00
2018-11-29T09:03:02.846Z,1712.00
2018-11-29T09:04:02.845Z,1712.00
2018-11-29T09:05:02.846Z,1696.00
2018-11-29T09:06:02.769Z,1680.00
2018-11-29T09:07:02.759Z,1664.00
2018-11-29T09:08:02.774Z,1656.00
2018-11-29T09:09:02.749Z,1680.00
2018-11-29T09:10:02.778Z,1720.00
2018-11-29T09:11:02.709Z,1780.00
2018-11-29T09:12:02.699Z,1820.00
2018-11-29T09:13:02.765Z,1836.00
2018-11-29T09:14:02.685Z,1816.00
2018-11-29T09:15:03.064Z,1768.00
2018-11-29T09:16:02.655Z,1712.00
2018-11-29T09:17:02.649Z,1652.00
2018-11-29T09:18:02.691Z,1584.00
2018-11-29T09:19:02.634Z,1524.00
2018-11-29T09:20:02.669Z,1488.00
2018-11-29T09:21:02.633Z,1480.00
2018-11-29T09:22:02.612Z,1500.00
2018-11-29T09:23:02.677Z,1532.00
2018-11-29T09:24:02.587Z,1560.00
2018-11-29T09:25:02.558Z,1572.00
2018-11-29T09:26:02.605Z,1576.00
2018-11-29T09:27:02.547Z,1580.00
2018-11-29T09:28:02.528Z,1600.00
2018-11-29T09:29:02.513Z,1640.00
2018-11-29T09:30:02.498Z,1692.00
2018-11-29T09:31:02.507Z,1752.00
2018-11-29T09:32:02.517Z,1812.00
2018-11-29T09:33:02.463Z,1864.00
2018-11-29T09:34:02.480Z,1908.00
2018-11-29T09:35:02.445Z,1932.00
2018-11-29T09:36:02.483Z,1944.00
2018-11-29T09:37:02.421Z,1940.00
2018-11-29T09:38:02.413Z,1920.00
2018-11-29T09:39:02.395Z,1888.00
2018-11-29T09:40:02.392Z,1848.00
2018-11-29T09:41:02.393Z,1804.00
2018-11-29T09:42:03.044Z,1764.00
2018-11-29T09:43:02.351Z,1732.00
2018-11-29T09:44:02.353Z,1700.00
2018-11-29T09:45:02.381Z,1664.00
2018-11-29T09:46:02.356Z,1632.00
2018-11-29T09:47:02.315Z,1604.00
2018-11-29T09:48:02.344Z,1588.00
2018-11-29T09:49:02.338Z,1588.00
2018-11-29T09:50:02.284Z,1612.00
2018-11-29T09:51:02.355Z,1648.00
2018-11-29T09:52:02.258Z,1696.00
2018-11-29T09:53:02.261Z,1740.00
2018-11-29T09:54:02.297Z,1788.00
2018-11-29T09:55:02.222Z,1828.00
2018-11-29T09:56:02.211Z,1852.00
2018-11-29T09:57:02.267Z,1864.00
2018-11-29T09:58:02.243Z,1852.00
2018-11-29T09:59:02.177Z,1836.00
2018-11-29T10:00:02.168Z,1816.00
2018-11-29T10:01:02.160Z,1792.00
2018-11-29T10:02:02.144Z,1768.00
2018-11-29T10:03:02.137Z,1756.00
2018-11-29T10:04:02.174Z,1748.00
2018-11-29T10:05:02.128Z,1756.00
2018-11-29T10:06:02.169Z,1768.00
2018-11-29T10:07:02.090Z,1784.00
2018-11-29T10:08:02.127Z,1808.00
2018-11-29T10:09:02.067Z,1836.00
2018-11-29T10:10:02.064Z,1852.00
2018-11-29T10:11:02.068Z,1868.00
2018-11-29T10:12:02.036Z,1880.00
2018-11-29T10:13:02.042Z,1884.00
2018-11-29T10:14:02.063Z,1876.00
2018-11-29T10:15:02.039Z,1872.00
2018-11-29T10:16:01.995Z,1864.00
2018-11-29T10:17:01.979Z,1840.00
2018-11-29T10:18:01.969Z,1796.00
2018-11-29T10:19:01.963Z,1752.00
2018-11-29T10:20:02.046Z,1696.00
2018-11-29T10:21:01.933Z,1648.00
2018-11-29T10:22:01.928Z,1604.00
2018-11-29T10:23:01.909Z,1568.00
2018-11-29T10:24:01.903Z,1532.00
2018-11-29T10:25:01.908Z,1492.00
2018-11-29T10:26:01.949Z,1452.00
2018-11-29T10:27:01.893Z,1420.00
2018-11-29T10:28:02.046Z,1396.00
2018-11-29T10:29:01.856Z,1388.00
2018-11-29T10:30:01.837Z,1388.00
2018-11-29T10:31:01.910Z,1408.00
2018-11-29T10:32:01.830Z,1444.00
2018-11-29T10:33:01.822Z,1472.00
2018-11-29T10:34:01.792Z,1488.00
2018-11-29T10:35:01.789Z,1492.00
2018-11-29T10:36:01.845Z,1488.00
2018-11-29T10:37:01.830Z,1484.00
2018-11-29T10:38:01.800Z,1464.00
2018-11-29T10:39:01.739Z,1452.00
2018-11-29T10:40:01.765Z,1448.00
2018-11-29T10:41:01.758Z,1440.00
2018-11-29T10:42:01.724Z,1436.00
2018-11-29T10:43:01.789Z,1436.00
2018-11-29T10:44:01.688Z,1444.00
2018-11-29T10:45:01.666Z,1460.00
2018-11-29T10:46:01.662Z,1468.00
2018-11-29T10:47:01.659Z,1464.00
2018-11-29T10:48:01.640Z,1448.00
2018-11-29T10:49:01.700Z,1420.00
2018-11-29T10:50:01.648Z,1388.00
2018-11-29T10:51:01.673Z,1360.00
2018-11-29T10:52:01.607Z,1344.00
2018-11-29T10:53:01.609Z,1320.00
2018-11-29T10:54:01.581Z,1288.00
2018-11-29T10:55:01.588Z,1252.00
2018-11-29T10:56:01.586Z,1216.00
2018-11-29T10:57:01.641Z,1208.00
2018-11-29T10:58:01.551Z,1216.00
2018-11-29T10:59:01.530Z,1240.00
2018-11-29T11:00:01.526Z,1276.00
2018-11-29T11:01:01.538Z,1292.00
2018-11-29T11:02:01.487Z,1308.00
2018-11-29T11:03:01.530Z,1324.00
2018-11-29T11:04:01.494Z,1356.00
2018-11-29T11:05:01.463Z,1376.00
2018-11-29T11:06:01.447Z,1384.00
2018-11-29T11:07:01.433Z,1380.00
2018-11-29T11:08:07.828Z,1384.00
2018-11-29T11:09:02.457Z,1384.00
2018-11-29T11:10:01.405Z,1376.00
2018-11-29T11:11:01.382Z,1352.00
2018-11-29T11:12:01.379Z,1304.00
2018-11-29T11:13:01.365Z,1268.00
2018-11-29T11:14:01.396Z,1248.00
2018-11-29T11:15:01.384Z,1236.00
2018-11-29T11:16:01.336Z,1228.00
2018-11-29T11:17:01.371Z,1224.00
2018-11-29T11:18:01.311Z,1216.00
2018-11-29T11:19:01.300Z,1204.00
2018-11-29T11:20:01.328Z,1196.00
2018-11-29T11:21:01.325Z,1180.00
2018-11-29T11:22:01.266Z,1172.00
2018-11-29T11:23:01.255Z,1172.00
2018-11-29T11:24:01.250Z,1160.00
2018-11-29T11:25:01.452Z,1168.00
2018-11-29T11:26:01.281Z,1172.00
2018-11-29T11:27:01.215Z,1172.00
2018-11-29T11:28:01.198Z,1152.00
2018-11-29T11:29:01.187Z,1144.00
2018-11-29T11:30:01.252Z,1152.00
2018-11-29T11:31:01.174Z,1168.00
2018-11-29T11:32:01.214Z,1188.00
2018-11-29T11:33:01.150Z,1204.00
2018-11-29T11:34:01.127Z,1208.00
2018-11-29T11:35:01.119Z,1212.00
2018-11-29T11:36:01.110Z,1196.00
2018-11-29T11:37:01.099Z,1172.00
2018-11-29T11:38:01.140Z,1136.00
2018-11-29T11:39:01.118Z,1104.00
2018-11-29T11:40:01.180Z,1088.00
2018-11-29T11:41:01.054Z,1088.00
2018-11-29T11:42:01.092Z,1080.00
2018-11-29T11:43:06.816Z,1080.00
2018-11-29T11:44:02.022Z,1068.00
2018-11-29T11:45:01.018Z,1044.00
2018-11-29T11:46:01.009Z,1020.00
2018-11-29T11:47:00.986Z,992.00
2018-11-29T11:48:03.439Z,968.00
2018-11-29T11:49:01.206Z,960.00
2018-11-29T11:50:02.624Z,948.00
2018-11-29T11:51:00.962Z,924.00
2018-11-29T11:52:00.941Z,892.00
2018-11-29T11:53:00.924Z,848.00
2018-11-29T11:54:00.957Z,816.00
2018-11-29T11:55:00.903Z,792.00
2018-11-29T11:56:00.954Z,772.00
2018-11-29T11:57:00.913Z,764.00
2018-11-29T11:58:00.866Z,744.00
2018-11-29T11:59:00.863Z,724.00
2018-11-29T12:00:00.847Z,700.00
2018-11-29T12:01:00.891Z,684.00
2018-11-29T12:02:00.873Z,672.00
2018-11-29T12:03:00.818Z,664.00
2018-11-29T12:04:00.806Z,656.00
2018-11-29T12:05:00.796Z,648.00
2018-11-29T12:06:00.779Z,648.00
2018-11-29T12:07:00.773Z,660.00
2018-11-29T12:08:00.805Z,688.00
2018-11-29T12:09:00.802Z,716.00
2018-11-29T12:10:00.737Z,736.00
2018-11-29T12:11:00.737Z,748.00
2018-11-29T12:12:00.721Z,756.00
2018-11-29T12:13:01.012Z,760.00
2018-11-29T12:14:00.721Z,776.00
2018-11-29T12:15:00.692Z,780.00
2018-11-29T12:16:00.669Z,780.00
2018-11-29T12:17:00.660Z,780.00
2018-11-29T12:18:00.672Z,788.00
2018-11-29T12:19:02.461Z,788.00
2018-11-29T12:20:00.682Z,772.00
2018-11-29T12:21:00.637Z,740.00
2018-11-29T12:22:00.609Z,716.00
2018-11-29T12:23:00.617Z,724.00
2018-11-29T12:24:00.593Z,756.00
2018-11-29T12:25:00.574Z,784.00
2018-11-29T12:26:00.665Z,780.00
2018-11-29T12:27:00.605Z,776.00
2018-11-29T12:28:00.554Z,760.00
2018-11-29T12:29:00.604Z,748.00
2018-11-29T12:30:00.519Z,768.00
2018-11-29T12:31:00.508Z,812.00
2018-11-29T12:32:00.492Z,868.00
2018-11-29T12:33:00.488Z,904.00
2018-11-29T12:34:00.525Z,920.00
2018-11-29T12:35:00.461Z,928.00
2018-11-29T12:36:00.452Z,944.00
2018-11-29T12:37:00.437Z,960.00
2018-11-29T12:38:00.441Z,988.00
2018-11-29T12:39:00.470Z,1028.00
2018-11-29T12:40:00.521Z,1080.00
2018-11-29T12:41:00.423Z,1144.00
2018-11-29T12:42:00.388Z,1200.00
2018-11-29T12:43:00.374Z,1280.00
2018-11-29T12:44:00.365Z,1352.00
2018-11-29T12:45:00.399Z,1404.00
2018-11-29T12:46:00.338Z,1432.00
2018-11-29T12:47:00.329Z,1424.00